createdAt,value
2018-02-23T00:02:27.607Z,99859.99
2018-02-23T00:04:56.138Z,99860.31
2018-02-23T00:07:24.632Z,99863.22
2018-02-23T00:09:53.113Z,99847.87
2018-02-23T00:12:21.614Z,99872.63
2018-02-23T00:14:50.111Z,99880.81
2018-02-23T00:17:18.650Z,99876.69
2018-02-23T00:19:47.199Z,99865.81
2018-02-23T00:22:15.728Z,99880.19
2018-02-23T00:24:44.187Z,99877.80
2018-02-23T00:27:12.634Z,99875.84
2018-02-23T00:29:41.130Z,99882.77
2018-02-23T00:32:09.652Z,99881.45
2018-02-23T00:34:38.160Z,99882.70
2018-02-23T00:37:06.622Z,99883.73
2018-02-23T00:39:35.111Z,99877.92
2018-02-23T00:42:03.562Z,99875.22
2018-02-23T00:44:32.062Z,99873.46
2018-02-23T00:47:00.517Z,99872.12
2018-02-23T00:49:29.006Z,99865.69
2018-02-23T00:51:57.506Z,99850.47
2018-02-23T00:54:26.035Z,99867.13
2018-02-23T00:56:54.487Z,99860.94
2018-02-23T00:59:23.007Z,99857.00
2018-02-23T01:01:51.490Z,99848.82
2018-02-23T01:04:19.987Z,99852.64
2018-02-23T01:06:48.438Z,99849.94
2018-02-23T01:09:16.899Z,99846.84
2018-02-23T01:11:45.402Z,99852.84
2018-02-23T01:14:13.882Z,99846.33
2018-02-23T01:16:42.384Z,99851.72
2018-02-23T01:19:10.896Z,99851.81
2018-02-23T01:21:39.350Z,99853.88
2018-02-23T01:24:07.802Z,99849.11
2018-02-23T01:26:36.290Z,99854.83
2018-02-23T01:29:04.783Z,99853.69
2018-02-23T01:31:33.281Z,99856.38
2018-02-23T01:34:01.819Z,99850.69
2018-02-23T01:36:30.310Z,99848.08
2018-02-23T01:38:58.774Z,99845.17
2018-02-23T01:41:27.268Z,99829.95
2018-02-23T01:43:55.794Z,99845.81
2018-02-23T01:46:24.237Z,99838.44
2018-02-23T01:48:52.740Z,99840.02
2018-02-23T01:51:21.238Z,99834.71
2018-02-23T01:53:49.693Z,99824.57
2018-02-23T01:56:18.194Z,99840.84
2018-02-23T01:58:46.653Z,99835.45
2018-02-23T02:01:15.154Z,99833.05
2018-02-23T02:03:43.642Z,99834.32
2018-02-23T02:06:12.149Z,99830.49
2018-02-23T02:08:40.598Z,99823.84
2018-02-23T02:11:09.062Z,99834.02
2018-02-23T02:13:37.541Z,99835.36
2018-02-23T02:16:06.074Z,99839.08
2018-02-23T02:18:34.597Z,99821.06
2018-02-23T02:21:03.094Z,99840.20
2018-02-23T02:23:31.630Z,99834.93
2018-02-23T02:26:00.076Z,99836.28
2018-02-23T02:28:28.571Z,99835.05
2018-02-23T02:30:57.071Z,99833.27
2018-02-23T02:33:25.525Z,99837.50
2018-02-23T02:35:54.022Z,99832.34
2018-02-23T02:38:22.491Z,99832.44
2018-02-23T02:40:50.999Z,99831.81
2018-02-23T02:43:19.511Z,99827.48
2018-02-23T02:45:48.018Z,99834.41
2018-02-23T02:48:16.500Z,99833.37
2018-02-23T02:50:45.004Z,99830.26
2018-02-23T02:53:13.466Z,99844.24
2018-02-23T02:55:41.958Z,99845.27
2018-02-23T02:58:10.489Z,99841.47
2018-02-23T03:00:39.003Z,99843.13
2018-02-23T03:03:07.506Z,99849.64
2018-02-23T03:05:35.979Z,99845.29
2018-02-23T03:08:04.483Z,99853.56
2018-02-23T03:10:32.960Z,99846.52
2018-02-23T03:13:01.459Z,99848.28
2018-02-23T03:15:29.918Z,99850.88
2018-02-23T03:17:58.467Z,99845.48
2018-02-23T03:20:26.930Z,99842.59
2018-02-23T03:22:55.401Z,99829.63
2018-02-23T03:25:23.910Z,99845.38
2018-02-23T03:27:52.432Z,99826.83
2018-02-23T03:30:20.907Z,99848.39
2018-02-23T03:32:49.449Z,99847.13
2018-02-23T03:35:17.938Z,99847.14
2018-02-23T03:37:46.442Z,99837.30
2018-02-23T03:40:14.914Z,99861.55
2018-02-23T03:42:43.433Z,99859.38
2018-02-23T03:45:11.965Z,99860.19
2018-02-23T03:47:40.441Z,99852.73
2018-02-23T03:50:08.915Z,99863.52
2018-02-23T03:52:37.410Z,99861.95
2018-02-23T03:55:05.874Z,99858.62
2018-02-23T03:57:34.369Z,99864.31
2018-02-23T04:00:02.900Z,99859.77
2018-02-23T04:02:31.405Z,99860.49
2018-02-23T04:04:59.901Z,99861.86
2018-02-23T04:07:28.354Z,99843.19
2018-02-23T04:09:56.845Z,99852.83
2018-02-23T04:12:25.334Z,99856.45
2018-02-23T04:14:53.806Z,99861.21
2018-02-23T04:17:22.321Z,99857.88
2018-02-23T04:19:50.818Z,99868.88
2018-02-23T04:22:19.317Z,99868.14
2018-02-23T04:24:47.810Z,99866.38
2018-02-23T04:27:16.282Z,99870.01
2018-02-23T04:29:44.745Z,99871.33
2018-02-23T04:32:13.233Z,99866.67
2018-02-23T04:34:41.700Z,99877.77
2018-02-23T04:37:10.172Z,99874.67
2018-02-23T04:39:38.706Z,99874.34
2018-02-23T04:42:07.166Z,99873.44
2018-02-23T04:44:35.702Z,99870.92
2018-02-23T04:47:04.187Z,99871.86
2018-02-23T04:49:32.663Z,99869.50
2018-02-23T04:52:01.241Z,99874.98
2018-02-23T04:54:29.725Z,99870.82
2018-02-23T04:56:58.247Z,99865.94
2018-02-23T04:59:26.738Z,99873.21
2018-02-23T05:01:55.237Z,99878.17
2018-02-23T05:04:23.697Z,99876.63
2018-02-23T05:06:52.206Z,99883.35
2018-02-23T05:09:20.702Z,99881.91
2018-02-23T05:11:49.170Z,99884.39
2018-02-23T05:14:17.702Z,99881.06
2018-02-23T05:16:46.245Z,99886.25
2018-02-23T05:19:14.744Z,99890.80
2018-02-23T05:21:43.274Z,99893.41
2018-02-23T05:24:11.957Z,99879.00
2018-02-23T05:26:40.413Z,99894.95
2018-02-23T05:29:08.950Z,99895.70
2018-02-23T05:31:37.458Z,99877.88
2018-02-23T05:34:05.958Z,99893.83
2018-02-23T05:36:34.451Z,99905.41
2018-02-23T05:39:03.000Z,99899.81
2018-02-23T05:41:31.539Z,99905.53
2018-02-23T05:44:00.050Z,99910.09
2018-02-23T05:46:28.542Z,99910.80
2018-02-23T05:48:57.058Z,99914.53
2018-02-23T05:51:25.519Z,99918.26
2018-02-23T05:53:54.042Z,99912.28
2018-02-23T05:56:22.525Z,99915.78
2018-02-23T05:58:50.994Z,99921.06
2018-02-23T06:01:19.574Z,99927.67
2018-02-23T06:03:48.065Z,99913.91
2018-02-23T06:06:16.554Z,99917.71
2018-02-23T06:08:45.010Z,99936.89
2018-02-23T06:11:13.502Z,99939.36
2018-02-23T06:13:42.028Z,99937.27
2018-02-23T06:16:16.026Z,99952.08
2018-02-23T06:18:50.042Z,99947.25
2018-02-23T06:21:18.561Z,99950.58
2018-02-23T06:23:47.043Z,99952.31
2018-02-23T06:26:15.527Z,99945.38
2018-02-23T06:28:44.027Z,99962.98
2018-02-23T06:31:12.527Z,99949.84
2018-02-23T06:33:40.986Z,99952.33
2018-02-23T06:36:09.492Z,99951.64
2018-02-23T06:38:38.971Z,99934.53
2018-02-23T06:41:07.478Z,99950.19
2018-02-23T06:43:35.956Z,99949.03
2018-02-23T06:46:04.576Z,99946.23
2018-02-23T06:48:33.078Z,99950.48
2018-02-23T06:51:01.538Z,99952.15
2018-02-23T06:53:30.034Z,99956.09
2018-02-23T06:55:58.602Z,99945.00
2018-02-23T06:58:27.063Z,99961.59
2018-02-23T07:00:55.522Z,99952.05
2018-02-23T07:03:24.058Z,99943.96
2018-02-23T07:05:52.572Z,99968.96
2018-02-23T07:08:21.041Z,99967.20
2018-02-23T07:10:49.508Z,99972.09
2018-02-23T07:13:18.029Z,99972.52
2018-02-23T07:15:46.522Z,99979.23
2018-02-23T07:18:15.002Z,99977.48
2018-02-23T07:20:43.517Z,99973.87
2018-02-23T07:23:12.015Z,99980.93
2018-02-23T07:25:45.248Z,99978.63
2018-02-23T07:28:13.851Z,99984.66
2018-02-23T07:30:42.431Z,99976.48
2018-02-23T07:33:10.902Z,99982.67
2018-02-23T07:35:39.365Z,99982.18
2018-02-23T07:38:07.865Z,99984.15
2018-02-23T07:40:36.378Z,99983.33
2018-02-23T07:43:04.846Z,99990.88
2018-02-23T07:45:33.346Z,99987.66
2018-02-23T07:48:01.858Z,99995.75
2018-02-23T07:50:30.400Z,99996.47
2018-02-23T07:52:58.886Z,99981.75
2018-02-23T07:55:27.383Z,99997.94
2018-02-23T07:57:55.856Z,99998.02
2018-02-23T08:00:24.422Z,99977.52
2018-02-23T08:02:52.883Z,99996.08
2018-02-23T08:05:21.391Z,99995.77
2018-02-23T08:07:49.865Z,99999.19
2018-02-23T08:10:18.386Z,99987.86
2018-02-23T08:12:46.902Z,99986.13
2018-02-23T08:15:15.426Z,99991.52
2018-02-23T08:17:44.007Z,99989.42
2018-02-23T08:20:12.521Z,99997.62
2018-02-23T08:22:41.063Z,99999.19
2018-02-23T08:25:09.590Z,100004.15
2018-02-23T08:27:38.058Z,100000.95
2018-02-23T08:30:06.565Z,99995.02
2018-02-23T08:32:35.065Z,100000.95
2018-02-23T08:35:03.565Z,100001.77
2018-02-23T08:37:32.030Z,99993.05
2018-02-23T08:40:00.518Z,99994.01
2018-02-23T08:42:29.053Z,99994.83
2018-02-23T08:44:57.570Z,99996.80
2018-02-23T08:47:26.070Z,99998.87
2018-02-23T08:49:54.541Z,99987.98
2018-02-23T08:52:23.043Z,99998.45
2018-02-23T08:54:51.498Z,99995.13
2018-02-23T08:57:20.017Z,100002.31
2018-02-23T08:59:48.489Z,99994.32
2018-02-23T09:02:16.997Z,100000.94
2018-02-23T09:04:45.505Z,99997.09
2018-02-23T09:07:13.980Z,100007.89
2018-02-23T09:09:42.482Z,99998.05
2018-02-23T09:12:10.993Z,100006.73
2018-02-23T09:14:39.465Z,100007.89
2018-02-23T09:17:07.982Z,100007.70
2018-02-23T09:19:36.498Z,100000.34
2018-02-23T09:22:04.982Z,100014.63
2018-02-23T09:24:33.503Z,100008.41
2018-02-23T09:27:02.011Z,100006.22
2018-02-23T09:29:30.498Z,99984.78
2018-02-23T09:31:58.991Z,99997.09
2018-02-23T09:34:38.322Z,100006.34
2018-02-23T09:37:06.866Z,99999.17
2018-02-23T09:39:35.364Z,100003.02
2018-02-23T09:42:03.826Z,99993.80
2018-02-23T09:44:32.323Z,99988.80
2018-02-23T09:47:00.821Z,99993.37
2018-02-23T09:49:29.337Z,99986.84
2018-02-23T09:51:57.805Z,99994.09
2018-02-23T09:54:26.310Z,99988.81
2018-02-23T09:56:54.854Z,99986.31
2018-02-23T09:59:23.347Z,99989.73
2018-02-23T10:01:51.886Z,99990.27
2018-02-23T10:04:20.348Z,99983.63
2018-02-23T10:06:48.917Z,99983.52
2018-02-23T10:09:17.445Z,99948.06
2018-02-23T10:11:45.942Z,99984.77
2018-02-23T10:14:14.470Z,99974.72
2018-02-23T10:16:43.017Z,99985.39
2018-02-23T10:19:11.495Z,99947.57
2018-02-23T10:21:40.027Z,99979.17
2018-02-23T10:24:08.514Z,99971.18
2018-02-23T10:26:36.982Z,99946.61
2018-02-23T10:29:05.496Z,99968.05
2018-02-23T10:31:33.986Z,99964.13
2018-02-23T10:34:02.488Z,99965.16
2018-02-23T10:36:31.046Z,99945.68
2018-02-23T10:38:59.566Z,99961.00
2018-02-23T10:41:28.108Z,99957.70
2018-02-23T10:43:56.670Z,99962.88
2018-02-23T10:46:25.139Z,99957.60
2018-02-23T10:48:53.674Z,99953.05
2018-02-23T10:51:22.198Z,99954.92
2018-02-23T10:53:50.706Z,99928.56
2018-02-23T10:56:19.153Z,99950.66
2018-02-23T10:58:47.677Z,99955.19
2018-02-23T11:01:16.159Z,99949.42
2018-02-23T11:03:44.700Z,99947.97
2018-02-23T11:06:13.162Z,99941.85
2018-02-23T11:08:41.686Z,99952.53
2018-02-23T11:11:10.176Z,99947.55
2018-02-23T11:13:38.693Z,99946.49
2018-02-23T11:16:07.205Z,99943.91
2018-02-23T11:18:35.689Z,99940.28
2018-02-23T11:21:04.154Z,99942.98
2018-02-23T11:23:32.657Z,99920.38
2018-02-23T11:26:01.181Z,99932.80
2018-02-23T11:28:29.690Z,99933.34
2018-02-23T11:30:58.200Z,99940.92
2018-02-23T11:33:26.729Z,99934.90
2018-02-23T11:35:55.204Z,99931.28
2018-02-23T11:38:23.759Z,99936.55
2018-02-23T11:40:52.239Z,99927.23
2018-02-23T11:43:20.788Z,99927.53
2018-02-23T11:45:49.306Z,99926.59
2018-02-23T11:48:17.768Z,99927.88
2018-02-23T11:50:46.230Z,99934.90
2018-02-23T11:53:14.746Z,99938.09
2018-02-23T11:55:43.198Z,99936.03
2018-02-23T12:16:26.510Z,99933.72
2018-02-23T12:18:54.982Z,99932.19
2018-02-23T12:21:23.568Z,99927.77
2018-02-23T12:23:52.022Z,99931.19
2018-02-23T12:26:20.535Z,99932.42
2018-02-23T12:28:48.998Z,99928.78
2018-02-23T12:31:17.482Z,99927.21
2018-02-23T12:33:45.976Z,99918.81
2018-02-23T12:36:14.452Z,99921.59
2018-02-23T12:38:42.970Z,99919.94
2018-02-23T12:41:11.434Z,99920.13
2018-02-23T12:43:39.902Z,99923.69
2018-02-23T12:46:08.483Z,99918.17
2018-02-23T12:48:37.002Z,99906.08
2018-02-23T12:51:05.652Z,99932.30
2018-02-23T12:53:34.109Z,99920.67
2018-02-23T12:56:02.710Z,99930.73
2018-02-23T12:58:31.203Z,99927.21
2018-02-23T13:00:59.727Z,99928.55
2018-02-23T13:03:28.202Z,99927.74
2018-02-23T13:05:56.702Z,99930.53
2018-02-23T13:08:25.183Z,99921.62
2018-02-23T13:10:53.728Z,99933.53
2018-02-23T13:13:22.183Z,99922.65
2018-02-23T13:15:50.750Z,99930.22
2018-02-23T13:18:19.256Z,99918.70
2018-02-23T13:20:47.755Z,99915.91
2018-02-23T13:23:16.232Z,99931.03
2018-02-23T13:25:44.765Z,99919.63
2018-02-23T13:28:18.701Z,99917.68
2018-02-23T13:30:47.200Z,99929.89
2018-02-23T13:33:15.699Z,99908.11
2018-02-23T13:35:44.230Z,99922.72
2018-02-23T13:38:12.729Z,99918.97
2018-02-23T13:40:41.234Z,99923.25
2018-02-23T13:43:09.743Z,99912.84
2018-02-23T13:45:38.222Z,99913.29
2018-02-23T13:48:06.765Z,99894.10
2018-02-23T13:50:35.234Z,99904.78
2018-02-23T13:53:09.348Z,99909.83
2018-02-23T13:55:37.819Z,99895.24
2018-02-23T13:58:06.328Z,99902.88
2018-02-23T14:00:35.567Z,99902.15
2018-02-23T14:03:04.067Z,99893.27
2018-02-23T14:05:33.357Z,99904.23
2018-02-23T14:08:01.922Z,99894.08
2018-02-23T14:10:30.387Z,99907.16
2018-02-23T14:12:58.978Z,99900.22
2018-02-23T14:15:27.483Z,99909.63
2018-02-23T14:17:56.031Z,99891.91
2018-02-23T14:20:24.521Z,99913.83
2018-02-23T14:22:53.050Z,99913.62
2018-02-23T14:25:21.563Z,99917.14
2018-02-23T14:27:50.059Z,99917.79
2018-02-23T14:30:18.566Z,99915.50
2018-02-23T14:32:47.062Z,99919.34
2018-02-23T14:35:15.603Z,99916.55
2018-02-23T14:37:44.108Z,99916.64
2018-02-23T14:40:12.618Z,99913.81
2018-02-23T14:42:41.115Z,99912.19
2018-02-23T14:45:09.610Z,99904.63
2018-02-23T14:47:38.113Z,99907.66
2018-02-23T14:50:18.281Z,99908.87
2018-02-23T14:52:46.798Z,99910.72
2018-02-23T14:55:15.282Z,99918.20
2018-02-23T14:57:43.809Z,99908.73
2018-02-23T15:00:12.338Z,99913.53
2018-02-23T15:02:40.845Z,99911.25
2018-02-23T19:20:37.995Z,99912.11
2018-02-23T19:23:06.579Z,99911.81
2018-02-23T19:25:35.166Z,99907.14
2018-02-23T19:28:03.642Z,99914.08
2018-02-23T19:30:32.175Z,99907.24
2018-02-23T19:33:00.676Z,99911.30
2018-02-23T19:35:29.254Z,99907.88
2018-02-23T19:37:57.760Z,99901.75
2018-02-23T19:40:26.255Z,99904.36
2018-02-23T19:42:54.803Z,99904.65
2018-02-23T19:45:23.253Z,99900.91
2018-02-23T19:47:51.719Z,99900.30
2018-02-23T19:50:20.230Z,99904.43
2018-02-23T19:52:48.687Z,99896.34
2018-02-23T19:55:17.194Z,99897.30
2018-02-23T19:57:45.726Z,99893.15
2018-02-23T20:00:14.228Z,99894.59
2018-02-23T20:02:42.822Z,99891.09
2018-02-23T20:05:11.299Z,99889.41
2018-02-23T20:07:39.794Z,99877.94
2018-02-23T20:10:08.262Z,99878.64
2018-02-23T20:12:36.740Z,99874.70
2018-02-23T20:15:05.247Z,99878.13
2018-02-23T20:17:33.706Z,99879.68
2018-02-23T20:20:02.182Z,99867.14
2018-02-23T20:22:30.690Z,99871.06
2018-02-23T20:24:59.189Z,99873.27
2018-02-23T20:27:27.727Z,99862.27
2018-02-23T20:29:56.307Z,99873.98
2018-02-23T20:32:24.794Z,99866.73
2018-02-23T20:34:53.270Z,99865.06
2018-02-23T20:37:21.762Z,99855.73
2018-02-23T20:39:50.247Z,99863.61
2018-02-23T20:42:18.742Z,99855.24
2018-02-23T20:44:47.258Z,99850.77
2018-02-23T20:47:15.746Z,99855.34
2018-02-23T20:49:44.211Z,99854.60
2018-02-23T20:52:12.702Z,99861.44
2018-02-23T20:54:41.198Z,99847.46
2018-02-23T20:57:09.710Z,99850.67
2018-02-23T20:59:38.197Z,99847.68
2018-02-23T21:02:06.672Z,99841.77
2018-02-23T21:04:35.172Z,99848.92
2018-02-23T21:07:03.714Z,99846.13
2018-02-23T21:09:32.177Z,99849.53
2018-02-23T21:12:00.687Z,99855.55
2018-02-23T21:14:29.138Z,99851.92
2018-02-23T21:16:57.641Z,99842.91
2018-02-23T21:19:26.159Z,99844.46
2018-02-23T21:21:54.618Z,99841.67
2018-02-23T21:24:23.110Z,99844.55
2018-02-23T21:26:51.566Z,99846.02
2018-02-23T21:29:20.074Z,99841.67
2018-02-23T21:31:48.594Z,99839.17
2018-02-23T21:34:17.102Z,99835.86
2018-02-23T21:36:45.587Z,99837.19
2018-02-23T21:39:14.064Z,99840.41
2018-02-23T21:41:54.289Z,99840.33
2018-02-23T21:44:22.909Z,99838.86
2018-02-23T21:46:51.352Z,99836.70
2018-02-23T21:49:19.850Z,99832.66
2018-02-23T21:51:48.311Z,99838.34
2018-02-23T21:54:16.793Z,99844.67
2018-02-23T21:56:45.308Z,99845.59
2018-02-23T21:59:13.863Z,99838.97
2018-02-23T22:01:42.295Z,99838.75
2018-02-23T22:04:10.844Z,99835.66
2018-02-23T22:06:39.345Z,99835.03
2018-02-23T22:09:07.791Z,99827.56
2018-02-23T22:11:36.286Z,99835.75
2018-02-23T22:14:04.750Z,99817.10
2018-02-23T22:16:33.246Z,99833.98
2018-02-23T22:19:01.774Z,99831.82
2018-02-23T22:21:30.229Z,99833.79
2018-02-23T22:23:58.760Z,99823.95
2018-02-23T22:26:27.218Z,99822.41
2018-02-23T22:28:55.746Z,99824.06
2018-02-23T22:31:24.202Z,99821.45
2018-02-23T22:33:52.695Z,99826.42
2018-02-23T22:36:21.210Z,99826.95
2018-02-23T22:38:49.683Z,99812.35
2018-02-23T22:41:18.142Z,99826.52
2018-02-23T22:43:46.652Z,99824.89
2018-02-23T22:46:15.155Z,99821.56
2018-02-23T22:48:43.667Z,99823.94
2018-02-23T22:51:12.125Z,99822.30
2018-02-23T22:53:40.594Z,99825.28
2018-02-23T22:56:09.126Z,99828.50
2018-02-23T22:58:37.577Z,99823.97
2018-02-23T23:01:06.070Z,99807.68
2018-02-23T23:03:34.570Z,99830.36
2018-02-23T23:06:03.087Z,99829.86
2018-02-23T23:08:31.550Z,99824.68
2018-02-23T23:11:00.065Z,99821.88
2018-02-23T23:13:28.597Z,99809.96
2018-02-23T23:15:57.097Z,99813.80
2018-02-23T23:18:25.578Z,99821.66
2018-02-23T23:20:54.082Z,99821.17
2018-02-23T23:23:22.538Z,99819.19
2018-02-23T23:25:51.069Z,99816.92
2018-02-23T23:28:20.530Z,99812.03
2018-02-23T23:30:48.981Z,99813.51
2018-02-23T23:33:17.513Z,99819.38
2018-02-23T23:35:45.969Z,99816.92
2018-02-23T23:38:14.476Z,99815.24
2018-02-23T23:40:42.933Z,99817.53
2018-02-23T23:43:11.386Z,99808.73
2018-02-23T23:45:39.881Z,99807.38
2018-02-23T23:48:08.370Z,99804.69
2018-02-23T23:50:36.857Z,99802.60
2018-02-23T23:53:05.350Z,99802.29
2018-02-23T23:55:33.826Z,99798.58
2018-02-23T23:58:02.317Z,99803.73
